sensor_id;sensor_type;location;lat;lon;timestamp;pressure;altitude;pressure_sealevel;temperature;humidity
38558;BME280;24333;42.626;23.308;2023-02-22T06:07:54;92154.69;;;5.12;83.91
38558;BME280;24333;42.626;23.308;2023-02-22T06:10:20;92190.06;;;5.47;83.16
38558;BME280;24333;42.626;23.308;2023-02-22T06:12:47;92145.88;;;5.27;82.05
38558;BME280;24333;42.626;23.308;2023-02-22T06:15:15;92199.16;;;5.68;81.06
38558;BME280;24333;42.626;23.308;2023-02-22T06:17:41;92202.13;;;5.78;79.69
38558;BME280;24333;42.626;23.308;2023-02-22T06:20:08;92180.03;;;5.76;79.33
38558;BME280;24333;42.626;23.308;2023-02-22T06:22:34;92168.75;;;5.87;78.27
38558;BME280;24333;42.626;23.308;2023-02-22T06:25:02;92158.09;;;5.94;76.15
38558;BME280;24333;42.626;23.308;2023-02-22T06:27:31;92184.44;;;6.26;74.13
38558;BME280;24333;42.626;23.308;2023-02-22T06:29:57;92178.75;;;6.47;71.89
38558;BME280;24333;42.626;23.308;2023-02-22T06:32:23;92158.59;;;6.60;70.58
38558;BME280;24333;42.626;23.308;2023-02-22T06:34:49;92189.97;;;7.13;68.72
38558;BME280;24333;42.626;23.308;2023-02-22T06:37:14;92177.59;;;7.32;66.89
38558;BME280;24333;42.626;23.308;2023-02-22T06:39:40;92194.75;;;7.75;61.85
38558;BME280;24333;42.626;23.308;2023-02-22T06:42:05;92199.19;;;8.27;59.00
38558;BME280;24333;42.626;23.308;2023-02-22T06:44:31;92189.16;;;8.50;58.07
38558;BME280;24333;42.626;23.308;2023-02-22T06:46:57;92199.41;;;8.84;56.18
38558;BME280;24333;42.626;23.308;2023-02-22T06:49:25;92203.50;;;8.97;55.04
38558;BME280;24333;42.626;23.308;2023-02-22T06:51:51;92176.84;;;9.07;54.80
38558;BME280;24333;42.626;23.308;2023-02-22T06:54:17;92153.56;;;9.09;55.02
38558;BME280;24333;42.626;23.308;2023-02-22T06:56:43;92151.41;;;9.22;52.07
38558;BME280;24333;42.626;23.308;2023-02-22T06:59:08;92157.16;;;9.44;50.12
38558;BME280;24333;42.626;23.308;2023-02-22T07:01:34;92169.00;;;9.59;52.82
38558;BME280;24333;42.626;23.308;2023-02-22T07:04:00;92179.13;;;9.32;54.46
38558;BME280;24333;42.626;23.308;2023-02-22T07:06:25;92187.66;;;8.53;55.57
38558;BME280;24333;42.626;23.308;2023-02-22T07:08:51;92183.38;;;7.89;57.46
38558;BME280;24333;42.626;23.308;2023-02-22T07:11:17;92202.47;;;7.73;58.30
38558;BME280;24333;42.626;23.308;2023-02-22T07:13:42;92194.97;;;7.47;59.38
38558;BME280;24333;42.626;23.308;2023-02-22T07:16:08;92185.25;;;7.10;60.26
38558;BME280;24333;42.626;23.308;2023-02-22T07:18:33;92176.34;;;7.09;60.63
38558;BME280;24333;42.626;23.308;2023-02-22T07:20:59;92173.34;;;7.15;61.18
38558;BME280;24333;42.626;23.308;2023-02-22T07:23:25;92209.66;;;7.46;62.32
38558;BME280;24333;42.626;23.308;2023-02-22T07:25:51;92201.31;;;7.55;62.85
38558;BME280;24333;42.626;23.308;2023-02-22T07:28:17;92200.66;;;7.61;62.18
38558;BME280;24333;42.626;23.308;2023-02-22T07:30:42;92159.25;;;7.45;62.47
38558;BME280;24333;42.626;23.308;2023-02-22T07:33:10;92210.22;;;7.75;61.65
38558;BME280;24333;42.626;23.308;2023-02-22T07:35:44;92204.88;;;7.59;62.06
38558;BME280;24333;42.626;23.308;2023-02-22T07:38:11;92217.47;;;7.67;61.81
38558;BME280;24333;42.626;23.308;2023-02-22T07:40:37;92203.53;;;7.49;61.96
38558;BME280;24333;42.626;23.308;2023-02-22T07:43:13;92214.16;;;7.58;61.72
38558;BME280;24333;42.626;23.308;2023-02-22T07:45:39;92196.53;;;7.48;62.19
38558;BME280;24333;42.626;23.308;2023-02-22T07:48:10;92180.66;;;7.30;61.87
38558;BME280;24333;42.626;23.308;2023-02-22T07:50:43;92162.28;;;7.23;62.22
38558;BME280;24333;42.626;23.308;2023-02-22T07:53:19;92192.31;;;7.50;62.07
38558;BME280;24333;42.626;23.308;2023-02-22T07:55:45;92161.69;;;7.50;62.12
38558;BME280;24333;42.626;23.308;2023-02-22T07:58:16;92177.88;;;7.86;61.30
38558;BME280;24333;42.626;23.308;2023-02-22T08:00:42;92184.75;;;7.99;60.75
38558;BME280;24333;42.626;23.308;2023-02-22T08:03:11;92187.06;;;8.20;61.05
38558;BME280;24333;42.626;23.308;2023-02-22T08:05:48;92154.94;;;8.26;60.78
38558;BME280;24333;42.626;23.308;2023-02-22T08:08:21;92176.88;;;8.60;59.75
38558;BME280;24333;42.626;23.308;2023-02-22T08:10:48;92194.47;;;8.90;58.59
38558;BME280;24333;42.626;23.308;2023-02-22T08:13:16;92196.31;;;9.09;58.29
38558;BME280;24333;42.626;23.308;2023-02-22T08:15:44;92192.00;;;9.08;58.60
38558;BME280;24333;42.626;23.308;2023-02-22T08:18:13;92190.88;;;9.09;57.28
38558;BME280;24333;42.626;23.308;2023-02-22T08:20:41;92186.03;;;8.99;57.84
38558;BME280;24333;42.626;23.308;2023-02-22T08:23:07;92185.19;;;8.94;57.82
38558;BME280;24333;42.626;23.308;2023-02-22T08:25:34;92210.22;;;9.04;57.37
38558;BME280;24333;42.626;23.308;2023-02-22T08:28:11;92201.78;;;9.13;57.11
38558;BME280;24333;42.626;23.308;2023-02-22T08:30:38;92214.53;;;9.08;56.99
38558;BME280;24333;42.626;23.308;2023-02-22T08:33:04;92211.16;;;9.15;57.03
38558;BME280;24333;42.626;23.308;2023-02-22T08:35:31;92206.47;;;9.16;57.51
38558;BME280;24333;42.626;23.308;2023-02-22T08:37:59;92171.28;;;9.00;57.04
38558;BME280;24333;42.626;23.308;2023-02-22T08:40:27;92194.63;;;9.28;55.55
38558;BME280;24333;42.626;23.308;2023-02-22T08:42:53;92194.03;;;9.42;55.70
38558;BME280;24333;42.626;23.308;2023-02-22T08:45:19;92182.47;;;9.48;55.69
38558;BME280;24333;42.626;23.308;2023-02-22T08:47:45;92183.84;;;9.65;54.06
38558;BME280;24333;42.626;23.308;2023-02-22T08:50:24;92184.81;;;9.80;54.44
38558;BME280;24333;42.626;23.308;2023-02-22T08:52:53;92189.94;;;9.86;53.47
38558;BME280;24333;42.626;23.308;2023-02-22T08:55:22;92163.03;;;9.80;53.68
38558;BME280;24333;42.626;23.308;2023-02-22T08:57:48;92189.03;;;10.08;52.92
38558;BME280;24333;42.626;23.308;2023-02-22T09:00:16;92199.41;;;10.33;53.04
38558;BME280;24333;42.626;23.308;2023-02-22T09:02:41;92188.28;;;10.49;51.77
38558;BME280;24333;42.626;23.308;2023-02-22T09:05:07;92174.38;;;10.58;50.71
38558;BME280;24333;42.626;23.308;2023-02-22T09:07:33;92196.03;;;10.85;50.40
38558;BME280;24333;42.626;23.308;2023-02-22T09:09:59;92178.91;;;10.88;50.13
38558;BME280;24333;42.626;23.308;2023-02-22T09:12:24;92192.28;;;11.08;49.81
38558;BME280;24333;42.626;23.308;2023-02-22T09:14:49;92173.19;;;11.04;48.95
38558;BME280;24333;42.626;23.308;2023-02-22T09:17:15;92187.41;;;11.32;47.99
38558;BME280;24333;42.626;23.308;2023-02-22T09:19:43;92180.38;;;11.31;48.41
38558;BME280;24333;42.626;23.308;2023-02-22T09:22:11;92186.38;;;11.54;48.62
38558;BME280;24333;42.626;23.308;2023-02-22T10:06:02;92146.06;;;12.25;47.29
38558;BME280;24333;42.626;23.308;2023-02-22T10:08:50;92164.44;;;12.36;46.13
38558;BME280;24333;42.626;23.308;2023-02-22T10:11:51;92154.69;;;12.46;47.40
38558;BME280;24333;42.626;23.308;2023-02-22T10:17:44;92140.66;;;12.54;45.52
38558;BME280;24333;42.626;23.308;2023-02-22T10:20:41;92140.28;;;12.63;46.42
38558;BME280;24333;42.626;23.308;2023-02-22T10:25:41;92127.00;;;12.62;46.23
38558;BME280;24333;42.626;23.308;2023-02-22T10:28:17;92134.41;;;12.72;45.03
38558;BME280;24333;42.626;23.308;2023-02-22T10:30:53;92108.63;;;12.69;45.76
38558;BME280;24333;42.626;23.308;2023-02-22T10:33:26;92110.19;;;12.70;45.30
38558;BME280;24333;42.626;23.308;2023-02-22T10:35:54;92119.16;;;12.89;44.89
38558;BME280;24333;42.626;23.308;2023-02-22T10:38:23;92114.47;;;12.86;44.71
38558;BME280;24333;42.626;23.308;2023-02-22T10:43:49;92091.81;;;12.96;43.61
38558;BME280;24333;42.626;23.308;2023-02-22T10:46:17;92098.81;;;13.26;43.04
38558;BME280;24333;42.626;23.308;2023-02-22T10:48:49;92087.44;;;13.35;43.76
38558;BME280;24333;42.626;23.308;2023-02-22T10:51:18;92098.03;;;13.29;42.73
38558;BME280;24333;42.626;23.308;2023-02-22T10:54:09;92088.22;;;13.36;42.43
38558;BME280;24333;42.626;23.308;2023-02-22T10:56:51;92076.13;;;13.29;42.58
38558;BME280;24333;42.626;23.308;2023-02-22T10:59:34;92077.28;;;13.43;42.02
38558;BME280;24333;42.626;23.308;2023-02-22T11:02:12;92080.38;;;13.52;42.36
38558;BME280;24333;42.626;23.308;2023-02-22T11:04:54;92081.94;;;13.46;41.53
38558;BME280;24333;42.626;23.308;2023-02-22T11:07:32;92091.31;;;13.52;42.20
38558;BME280;24333;42.626;23.308;2023-02-22T11:10:01;92081.50;;;13.58;42.15
38558;BME280;24333;42.626;23.308;2023-02-22T11:12:41;92073.31;;;13.55;42.27
38558;BME280;24333;42.626;23.308;2023-02-22T11:17:52;92058.06;;;13.50;41.27
38558;BME280;24333;42.626;23.308;2023-02-22T11:20:24;92058.09;;;13.47;42.03
38558;BME280;24333;42.626;23.308;2023-02-22T11:22:57;92058.84;;;13.54;41.42
38558;BME280;24333;42.626;23.308;2023-02-22T11:25:36;92060.72;;;13.72;41.07
38558;BME280;24333;42.626;23.308;2023-02-22T11:28:27;92054.38;;;13.90;40.58
38558;BME280;24333;42.626;23.308;2023-02-22T11:31:15;92046.13;;;13.93;43.51
38558;BME280;24333;42.626;23.308;2023-02-22T11:33:56;92059.31;;;14.13;40.52
38558;BME280;24333;42.626;23.308;2023-02-22T11:36:40;92061.63;;;14.22;41.43
38558;BME280;24333;42.626;23.308;2023-02-22T11:39:30;92059.25;;;14.24;41.44
38558;BME280;24333;42.626;23.308;2023-02-22T11:42:36;92052.47;;;14.43;40.69
38558;BME280;24333;42.626;23.308;2023-02-22T11:45:23;92038.81;;;14.39;40.26
38558;BME280;24333;42.626;23.308;2023-02-22T11:47:55;92052.91;;;14.38;39.81
38558;BME280;24333;42.626;23.308;2023-02-22T11:50:57;92056.19;;;14.14;38.82
38558;BME280;24333;42.626;23.308;2023-02-22T11:56:18;92038.66;;;13.97;39.59
38558;BME280;24333;42.626;23.308;2023-02-22T12:02:24;92043.19;;;14.26;39.98
38558;BME280;24333;42.626;23.308;2023-02-22T12:05:22;92037.63;;;14.40;40.12
38558;BME280;24333;42.626;23.308;2023-02-22T12:11:10;92034.22;;;14.74;39.97
38558;BME280;24333;42.626;23.308;2023-02-22T12:19:37;92020.97;;;14.62;39.44
38558;BME280;24333;42.626;23.308;2023-02-22T12:22:22;92031.63;;;14.53;39.40
38558;BME280;24333;42.626;23.308;2023-02-22T12:25:21;92009.00;;;14.41;39.51
38558;BME280;24333;42.626;23.308;2023-02-22T12:27:53;92009.47;;;14.32;39.28
38558;BME280;24333;42.626;23.308;2023-02-22T12:30:32;91992.28;;;14.25;39.52
38558;BME280;24333;42.626;23.308;2023-02-22T12:33:03;92004.78;;;14.33;38.46
38558;BME280;24333;42.626;23.308;2023-02-22T12:35:50;91993.03;;;14.29;38.98
38558;BME280;24333;42.626;23.308;2023-02-22T13:19:50;91989.97;;;14.20;41.41
38558;BME280;24333;42.626;23.308;2023-02-22T13:22:42;91996.94;;;14.31;40.49
38558;BME280;24333;42.626;23.308;2023-02-22T13:25:52;91966.53;;;14.11;40.92
38558;BME280;24333;42.626;23.308;2023-02-22T13:56:45;91941.00;;;13.65;39.51
38558;BME280;24333;42.626;23.308;2023-02-22T13:59:31;91973.28;;;13.99;39.78
38558;BME280;24333;42.626;23.308;2023-02-22T14:01:58;91980.97;;;14.19;40.09
38558;BME280;24333;42.626;23.308;2023-02-22T14:07:04;91975.00;;;14.28;39.52
38558;BME280;24333;42.626;23.308;2023-02-22T14:09:52;91961.28;;;14.31;39.93
38558;BME280;24333;42.626;23.308;2023-02-22T14:17:43;91986.28;;;14.41;41.34
38558;BME280;24333;42.626;23.308;2023-02-22T14:22:45;91982.25;;;14.03;43.15
38558;BME280;24333;42.626;23.308;2023-02-22T14:25:31;91980.06;;;13.80;44.56
38558;BME280;24333;42.626;23.308;2023-02-22T14:27:58;91980.53;;;13.64;44.53
38558;BME280;24333;42.626;23.308;2023-02-22T14:30:27;91965.44;;;13.30;45.77
38558;BME280;24333;42.626;23.308;2023-02-22T14:32:53;91981.47;;;13.25;45.29
38558;BME280;24333;42.626;23.308;2023-02-22T14:35:19;91988.19;;;13.09;45.89
38558;BME280;24333;42.626;23.308;2023-02-22T14:38:13;91978.09;;;12.84;46.84
38558;BME280;24333;42.626;23.308;2023-02-22T14:40:44;91976.16;;;12.67;45.85
38558;BME280;24333;42.626;23.308;2023-02-22T14:43:16;91962.53;;;12.41;47.25
38558;BME280;24333;42.626;23.308;2023-02-22T17:26:17;92019.69;;;8.93;68.39
38558;BME280;24333;42.626;23.308;2023-02-22T17:28:43;92046.72;;;9.09;68.49
38558;BME280;24333;42.626;23.308;2023-02-22T17:31:16;92018.97;;;8.96;67.66
38558;BME280;24333;42.626;23.308;2023-02-22T17:33:43;92020.47;;;8.93;67.74
38558;BME280;24333;42.626;23.308;2023-02-22T17:36:09;92025.28;;;9.04;66.67
38558;BME280;24333;42.626;23.308;2023-02-22T17:38:34;92023.78;;;9.10;67.05
38558;BME280;24333;42.626;23.308;2023-02-22T17:41:00;92041.84;;;9.25;67.03
38558;BME280;24333;42.626;23.308;2023-02-22T17:43:27;92045.03;;;9.31;65.88
38558;BME280;24333;42.626;23.308;2023-02-22T17:45:53;92000.81;;;9.04;65.84
38558;BME280;24333;42.626;23.308;2023-02-22T17:48:20;92004.34;;;9.08;65.96
38558;BME280;24333;42.626;23.308;2023-02-22T17:53:33;92042.09;;;9.47;64.30
38558;BME280;24333;42.626;23.308;2023-02-22T17:58:40;92013.88;;;9.25;63.93
38558;BME280;24333;42.626;23.308;2023-02-22T18:01:37;92040.53;;;9.46;63.34
38558;BME280;24333;42.626;23.308;2023-02-22T18:04:09;92018.19;;;9.30;62.31
38558;BME280;24333;42.626;23.308;2023-02-22T18:06:58;92033.97;;;9.51;62.11
38558;BME280;24333;42.626;23.308;2023-02-22T18:09:25;92010.44;;;9.32;62.37
38558;BME280;24333;42.626;23.308;2023-02-22T18:14:26;92021.72;;;9.34;62.94
38558;BME280;24333;42.626;23.308;2023-02-22T18:20:50;92032.03;;;9.17;63.72
38558;BME280;24333;42.626;23.308;2023-02-22T18:23:25;92020.59;;;9.04;64.52
38558;BME280;24333;42.626;23.308;2023-02-22T18:25:52;92006.03;;;8.86;65.35
38558;BME280;24333;42.626;23.308;2023-02-22T18:28:19;92041.22;;;9.05;65.76
38558;BME280;24333;42.626;23.308;2023-02-22T18:30:46;91990.25;;;8.68;66.21
38558;BME280;24333;42.626;23.308;2023-02-22T18:33:12;92009.28;;;8.68;66.00
38558;BME280;24333;42.626;23.308;2023-02-22T18:38:13;92029.09;;;8.68;68.78
38558;BME280;24333;42.626;23.308;2023-02-22T18:40:57;92025.06;;;8.59;69.67
38558;BME280;24333;42.626;23.308;2023-02-22T18:43:23;92029.84;;;8.42;72.38
38558;BME280;24333;42.626;23.308;2023-02-22T18:45:48;92029.63;;;8.28;72.82
38558;BME280;24333;42.626;23.308;2023-02-22T18:48:14;92030.31;;;8.21;73.80
38558;BME280;24333;42.626;23.308;2023-02-22T18:50:39;92023.13;;;8.09;74.01
38558;BME280;24333;42.626;23.308;2023-02-22T18:53:17;92037.84;;;8.08;74.44
38558;BME280;24333;42.626;23.308;2023-02-22T18:55:56;92038.13;;;7.99;74.53
38558;BME280;24333;42.626;23.308;2023-02-22T18:58:26;92029.84;;;7.92;73.97
38558;BME280;24333;42.626;23.308;2023-02-22T19:00:51;92040.22;;;7.86;74.58
38558;BME280;24333;42.626;23.308;2023-02-22T19:03:17;92044.03;;;7.81;75.03
38558;BME280;24333;42.626;23.308;2023-02-22T19:05:42;92032.97;;;7.71;75.71
38558;BME280;24333;42.626;23.308;2023-02-22T19:08:08;92036.94;;;7.77;74.47
38558;BME280;24333;42.626;23.308;2023-02-22T19:10:36;92026.66;;;7.63;76.68
38558;BME280;24333;42.626;23.308;2023-02-22T19:13:03;92003.41;;;7.42;77.07
38558;BME280;24333;42.626;23.308;2023-02-22T19:15:32;92016.69;;;7.47;77.55
38558;BME280;24333;42.626;23.308;2023-02-22T19:17:57;92042.38;;;7.53;78.01
38558;BME280;24333;42.626;23.308;2023-02-22T19:20:23;92028.97;;;7.41;78.95
38558;BME280;24333;42.626;23.308;2023-02-22T19:25:25;92043.41;;;7.26;81.10
38558;BME280;24333;42.626;23.308;2023-02-22T19:27:50;92042.97;;;7.23;80.46
38558;BME280;24333;42.626;23.308;2023-02-22T19:32:59;92051.69;;;7.13;80.61
38558;BME280;24333;42.626;23.308;2023-02-22T19:35:39;92054.75;;;7.12;80.32
38558;BME280;24333;42.626;23.308;2023-02-22T19:43:35;92051.53;;;7.06;80.59
38558;BME280;24333;42.626;23.308;2023-02-22T19:48:44;92039.97;;;6.89;80.40
38558;BME280;24333;42.626;23.308;2023-02-22T19:53:49;92035.53;;;6.81;81.07
38558;BME280;24333;42.626;23.308;2023-02-22T19:56:18;92037.81;;;6.79;81.36
38558;BME280;24333;42.626;23.308;2023-02-22T19:58:46;92034.16;;;6.71;82.82
38558;BME280;24333;42.626;23.308;2023-02-22T20:03:45;92070.91;;;6.88;81.31
38558;BME280;24333;42.626;23.308;2023-02-22T20:08:50;92050.88;;;6.73;82.16
38558;BME280;24333;42.626;23.308;2023-02-22T20:11:18;92071.63;;;6.85;81.88
38558;BME280;24333;42.626;23.308;2023-02-22T20:14:08;92078.47;;;6.79;80.69
38558;BME280;24333;42.626;23.308;2023-02-22T20:16:37;92051.09;;;6.64;81.49
38558;BME280;24333;42.626;23.308;2023-02-22T20:19:02;92069.47;;;6.75;81.52
38558;BME280;24333;42.626;23.308;2023-02-22T20:37:00;92076.31;;;6.69;83.27
38558;BME280;24333;42.626;23.308;2023-02-22T20:39:26;92059.78;;;6.54;83.10
38558;BME280;24333;42.626;23.308;2023-02-22T20:41:51;92083.94;;;6.63;80.73
38558;BME280;24333;42.626;23.308;2023-02-22T20:44:19;92055.41;;;6.49;80.22
38558;BME280;24333;42.626;23.308;2023-02-22T20:46:47;92057.06;;;6.54;79.01
38558;BME280;24333;42.626;23.308;2023-02-22T20:49:15;92076.22;;;6.65;77.73
38558;BME280;24333;42.626;23.308;2023-02-22T20:51:42;92064.97;;;6.63;75.63
38558;BME280;24333;42.626;23.308;2023-02-22T20:54:09;92062.25;;;6.63;74.79
38558;BME280;24333;42.626;23.308;2023-02-22T20:56:40;92076.91;;;6.78;75.92
38558;BME280;24333;42.626;23.308;2023-02-22T20:59:07;92078.03;;;6.77;75.66
38558;BME280;24333;42.626;23.308;2023-02-22T21:01:38;92072.56;;;6.73;76.26
38558;BME280;24333;42.626;23.308;2023-02-22T21:04:05;92067.78;;;6.67;74.40
38558;BME280;24333;42.626;23.308;2023-02-22T21:35:51;92050.63;;;5.94;77.82
38558;BME280;24333;42.626;23.308;2023-02-22T21:38:16;92055.69;;;5.96;79.14
38558;BME280;24333;42.626;23.308;2023-02-22T21:40:45;92061.09;;;5.96;80.50
38558;BME280;24333;42.626;23.308;2023-02-22T21:43:10;92049.03;;;5.77;81.76
38558;BME280;24333;42.626;23.308;2023-02-22T21:45:39;92051.75;;;5.77;79.44
38558;BME280;24333;42.626;23.308;2023-02-22T21:48:04;92063.66;;;5.89;80.34
38558;BME280;24333;42.626;23.308;2023-02-22T21:50:30;92057.44;;;5.88;78.98
38558;BME280;24333;42.626;23.308;2023-02-22T22:08:48;92024.69;;;5.77;75.72
38558;BME280;24333;42.626;23.308;2023-02-22T22:11:19;92042.84;;;5.93;73.61
38558;BME280;24333;42.626;23.308;2023-02-22T22:13:48;92025.31;;;5.87;73.97
38558;BME280;24333;42.626;23.308;2023-02-22T22:16:21;92035.59;;;5.97;73.60
38558;BME280;24333;42.626;23.308;2023-02-22T22:18:48;92055.97;;;6.07;71.56
38558;BME280;24333;42.626;23.308;2023-02-22T22:21:33;92055.72;;;6.12;73.17
38558;BME280;24333;42.626;23.308;2023-02-22T22:29:09;92056.75;;;6.07;73.28
